createdAt,value
2019-04-30T00:01:26.105Z,0.10
2019-04-30T00:03:50.467Z,0.30
2019-04-30T00:06:10.580Z,0.28
2019-04-30T00:08:37.561Z,0.35
2019-04-30T00:10:52.745Z,0.20
2019-04-30T00:13:17.840Z,0.20
2019-04-30T00:15:35.779Z,0.10
2019-04-30T00:18:01.749Z,0.20
2019-04-30T00:20:20.245Z,0.10
2019-04-30T00:22:47.235Z,0.20
2019-04-30T00:25:05.354Z,0.10
2019-04-30T00:27:30.043Z,0.20
2019-04-30T00:29:47.995Z,0.10
2019-04-30T00:32:08.543Z,0.10
2019-04-30T00:34:31.021Z,0.20
2019-04-30T00:36:51.546Z,0.10
2019-04-30T00:39:13.384Z,0.30
2019-04-30T00:41:35.372Z,0.10
2019-04-30T00:43:55.339Z,0.20
2019-04-30T00:46:17.454Z,0.20
2019-04-30T00:48:37.989Z,0.17
2019-04-30T00:50:58.516Z,0.20
2019-04-30T00:53:20.713Z,0.28
2019-04-30T00:55:44.936Z,0.10
2019-04-30T00:58:06.001Z,0.30
2019-04-30T01:00:29.621Z,0.20
2019-04-30T01:03:09.284Z,0.30
2019-04-30T01:05:28.901Z,0.23
2019-04-30T01:07:51.826Z,0.37
2019-04-30T01:10:12.760Z,0.20
2019-04-30T01:12:38.498Z,0.20
2019-04-30T01:14:55.461Z,0.20
2019-04-30T01:17:16.106Z,0.50
2019-04-30T01:19:36.711Z,0.30
2019-04-30T01:21:57.234Z,0.40
2019-04-30T01:24:19.043Z,0.50
2019-04-30T01:26:39.792Z,0.55
2019-04-30T01:29:02.185Z,0.20
2019-04-30T01:31:22.217Z,0.20
2019-04-30T01:33:42.830Z,0.30
2019-04-30T01:36:04.085Z,0.00
2019-04-30T01:38:26.005Z,0.30
2019-04-30T01:40:47.425Z,0.20
2019-04-30T01:43:09.129Z,0.13
2019-04-30T01:45:31.585Z,0.25
2019-04-30T01:47:51.888Z,0.23
2019-04-30T01:50:12.495Z,0.20
2019-04-30T01:52:50.769Z,0.23
2019-04-30T01:55:11.367Z,0.10
2019-04-30T01:57:33.507Z,0.05
2019-04-30T02:00:11.819Z,0.25
2019-04-30T02:02:36.707Z,0.20
2019-04-30T02:04:59.035Z,0.20
2019-04-30T02:07:19.297Z,0.10
2019-04-30T02:09:39.773Z,0.10
2019-04-30T02:12:00.261Z,0.23
2019-04-30T02:14:20.733Z,0.20
2019-04-30T02:16:41.498Z,0.20
2019-04-30T02:19:02.040Z,0.13
2019-04-30T02:21:22.682Z,0.10
2019-04-30T02:23:43.190Z,0.10
2019-04-30T02:26:03.697Z,0.20
2019-04-30T02:28:24.214Z,0.10
2019-04-30T02:30:45.700Z,0.10
2019-04-30T02:33:06.306Z,0.20
2019-04-30T02:35:31.038Z,0.10
2019-04-30T02:38:15.651Z,0.30
2019-04-30T02:40:39.279Z,0.10
2019-04-30T02:43:01.837Z,0.00
2019-04-30T02:45:22.060Z,0.17
2019-04-30T02:47:43.079Z,0.10
2019-04-30T02:50:15.335Z,0.10
2019-04-30T02:52:29.650Z,0.10
2019-04-30T02:54:55.047Z,0.10
2019-04-30T02:57:15.528Z,0.13
2019-04-30T02:59:40.254Z,0.28
2019-04-30T03:02:00.078Z,0.10
2019-04-30T03:04:20.569Z,0.20
2019-04-30T03:06:41.165Z,0.15
2019-04-30T03:09:01.687Z,0.20
2019-04-30T03:11:23.763Z,0.10
2019-04-30T03:13:45.820Z,0.10
2019-04-30T03:16:09.292Z,0.08
2019-04-30T03:18:49.832Z,0.10
2019-04-30T03:21:31.922Z,0.10
2019-04-30T03:23:51.496Z,0.00
2019-04-30T03:26:12.951Z,0.10
2019-04-30T03:28:33.183Z,0.20
2019-04-30T03:30:57.563Z,0.10
2019-04-30T03:33:15.957Z,0.10
2019-04-30T03:35:36.001Z,0.10
2019-04-30T03:37:59.093Z,0.10
2019-04-30T03:40:20.236Z,0.28
2019-04-30T03:42:40.939Z,0.00
2019-04-30T03:45:01.488Z,0.03
2019-04-30T03:47:23.184Z,0.00
2019-04-30T03:49:43.763Z,0.10
2019-04-30T03:52:04.231Z,0.20
2019-04-30T03:54:24.685Z,0.10
2019-04-30T03:56:45.493Z,0.20
2019-04-30T03:59:06.040Z,0.10
2019-04-30T04:01:34.313Z,0.28
2019-04-30T04:04:10.165Z,0.28
2019-04-30T04:06:41.772Z,0.47
2019-04-30T04:09:04.674Z,0.30
2019-04-30T04:11:26.857Z,0.30
2019-04-30T04:13:49.420Z,0.30
2019-04-30T04:16:11.162Z,0.20
2019-04-30T04:18:31.630Z,0.20
2019-04-30T04:21:07.634Z,0.35
2019-04-30T04:23:15.875Z,0.30
2019-04-30T04:25:36.389Z,0.45
2019-04-30T04:27:56.361Z,0.20
2019-04-30T04:30:20.049Z,0.10
2019-04-30T04:32:40.689Z,0.10
2019-04-30T04:35:00.981Z,0.10
2019-04-30T04:37:22.108Z,0.30
2019-04-30T04:39:42.661Z,0.20
2019-04-30T04:42:03.364Z,0.20
2019-04-30T04:44:25.896Z,0.10
2019-04-30T04:46:46.310Z,0.13
2019-04-30T04:49:08.913Z,0.20
2019-04-30T04:51:38.081Z,0.10
2019-04-30T04:53:51.223Z,0.20
2019-04-30T04:56:11.767Z,0.20
2019-04-30T04:58:32.415Z,0.30
2019-04-30T05:00:52.957Z,0.10
2019-04-30T05:03:15.148Z,0.20
2019-04-30T05:05:37.249Z,0.20
2019-04-30T05:07:58.423Z,0.10
2019-04-30T05:10:19.281Z,0.20
2019-04-30T05:12:40.020Z,0.20
2019-04-30T05:15:00.515Z,0.23
2019-04-30T05:17:21.036Z,0.20
2019-04-30T05:19:41.089Z,0.08
2019-04-30T05:22:02.421Z,0.20
2019-04-30T05:24:22.983Z,0.15
2019-04-30T05:26:42.929Z,0.20
2019-04-30T05:29:02.839Z,0.30
2019-04-30T05:31:22.957Z,0.20
2019-04-30T05:33:43.499Z,0.20
2019-04-30T05:36:03.485Z,0.20
2019-04-30T05:38:23.590Z,0.10
2019-04-30T05:40:44.180Z,0.30
2019-04-30T05:43:04.793Z,0.20
2019-04-30T05:45:25.259Z,0.20
2019-04-30T05:47:45.847Z,0.30
2019-04-30T05:50:09.255Z,0.08
2019-04-30T05:52:29.521Z,0.03
2019-04-30T05:54:49.903Z,0.20
2019-04-30T05:57:11.434Z,0.10
2019-04-30T05:59:32.136Z,0.65
2019-04-30T06:01:53.620Z,0.17
2019-04-30T06:04:13.678Z,0.20
2019-04-30T06:06:33.910Z,0.10
2019-04-30T06:09:06.210Z,0.40
2019-04-30T06:11:40.758Z,0.10
2019-04-30T06:14:02.847Z,0.20
2019-04-30T06:16:25.800Z,0.10
2019-04-30T06:18:46.173Z,0.08
2019-04-30T06:21:06.956Z,0.20
2019-04-30T06:23:27.081Z,0.17
2019-04-30T06:25:57.337Z,0.20
2019-04-30T06:28:12.846Z,0.30
2019-04-30T06:30:33.790Z,0.20
2019-04-30T06:32:54.937Z,0.42
2019-04-30T06:35:15.465Z,0.33
2019-04-30T06:37:36.187Z,0.30
2019-04-30T06:39:56.293Z,0.30
2019-04-30T06:42:17.030Z,0.20
2019-04-30T06:44:39.860Z,0.10
2019-04-30T06:47:01.244Z,0.20
2019-04-30T06:49:22.769Z,0.20
2019-04-30T06:51:43.661Z,0.20
2019-04-30T06:54:04.248Z,0.10
2019-04-30T06:56:24.697Z,0.00
2019-04-30T06:58:45.014Z,0.30
2019-04-30T07:01:05.421Z,0.20
2019-04-30T07:03:25.811Z,0.20
2019-04-30T07:05:48.629Z,0.30
2019-04-30T07:08:36.137Z,0.10
2019-04-30T07:10:55.591Z,0.10
2019-04-30T07:13:18.843Z,0.30
2019-04-30T07:15:39.533Z,0.10
2019-04-30T07:17:59.881Z,0.20
2019-04-30T07:20:20.367Z,0.27
2019-04-30T07:22:50.088Z,0.30
2019-04-30T07:25:02.773Z,0.30
2019-04-30T07:27:24.216Z,0.10
2019-04-30T07:29:44.795Z,0.20
2019-04-30T07:32:05.990Z,0.10
2019-04-30T07:34:26.188Z,0.40
2019-04-30T07:36:50.864Z,0.20
2019-04-30T07:39:10.095Z,0.20
2019-04-30T07:41:31.224Z,0.40
2019-04-30T07:43:51.627Z,0.17
2019-04-30T07:46:12.303Z,0.40
2019-04-30T07:48:32.602Z,0.30
2019-04-30T07:50:53.417Z,0.20
2019-04-30T07:53:13.570Z,0.20
2019-04-30T07:55:33.765Z,0.10
2019-04-30T07:57:53.937Z,0.20
2019-04-30T08:00:15.489Z,0.20
2019-04-30T08:02:41.534Z,0.30
2019-04-30T08:05:00.984Z,0.17
2019-04-30T08:07:21.704Z,0.20
2019-04-30T08:09:42.742Z,0.30
2019-04-30T08:12:03.425Z,0.40
2019-04-30T08:14:25.056Z,0.10
2019-04-30T08:16:45.128Z,0.30
2019-04-30T08:19:05.677Z,0.23
2019-04-30T08:21:26.195Z,0.40
2019-04-30T08:23:46.421Z,0.20
2019-04-30T08:26:08.701Z,1.57
2019-04-30T08:28:30.379Z,1.10
2019-04-30T08:30:51.009Z,0.42
2019-04-30T08:33:11.080Z,0.20
2019-04-30T08:35:31.116Z,0.30
2019-04-30T08:37:51.086Z,1.10
2019-04-30T08:40:19.089Z,0.40
2019-04-30T08:42:40.359Z,0.20
2019-04-30T08:45:01.167Z,0.30
2019-04-30T08:47:21.711Z,0.45
2019-04-30T08:49:41.824Z,0.33
2019-04-30T08:52:02.180Z,0.40
2019-04-30T08:54:22.699Z,0.40
2019-04-30T08:56:43.258Z,0.20
2019-04-30T08:59:03.239Z,0.42
2019-04-30T09:01:23.419Z,0.30
2019-04-30T09:03:43.925Z,0.30
2019-04-30T09:06:05.574Z,0.30
2019-04-30T09:08:26.336Z,0.30
2019-04-30T09:10:46.302Z,0.40
2019-04-30T09:13:09.097Z,0.42
2019-04-30T09:15:29.042Z,0.30
2019-04-30T09:18:00.675Z,0.40
2019-04-30T09:20:12.200Z,0.37
2019-04-30T09:22:32.846Z,0.40
2019-04-30T09:24:53.431Z,0.45
2019-04-30T09:27:14.059Z,0.35
2019-04-30T09:29:34.047Z,0.55
2019-04-30T09:31:54.076Z,0.70
2019-04-30T09:34:17.907Z,0.35
2019-04-30T09:36:39.010Z,0.70
2019-04-30T09:39:01.509Z,0.50
2019-04-30T09:41:22.864Z,0.60
2019-04-30T09:43:43.420Z,0.37
2019-04-30T09:46:15.200Z,0.40
2019-04-30T09:48:26.167Z,0.55
2019-04-30T09:50:49.203Z,0.37
2019-04-30T09:53:10.039Z,0.42
2019-04-30T09:55:31.008Z,0.42
2019-04-30T09:57:51.679Z,0.30
2019-04-30T10:00:13.094Z,0.37
2019-04-30T10:02:33.214Z,0.30
2019-04-30T10:04:54.022Z,0.30
2019-04-30T10:07:14.683Z,0.30
2019-04-30T10:09:36.270Z,0.40
2019-04-30T10:12:10.523Z,0.70
2019-04-30T10:14:31.283Z,0.90
2019-04-30T10:16:59.582Z,0.72
2019-04-30T10:19:20.310Z,0.60
2019-04-30T10:21:40.854Z,0.60
2019-04-30T10:24:12.521Z,0.93
2019-04-30T10:26:23.913Z,0.37
2019-04-30T10:28:45.408Z,0.47
2019-04-30T10:31:06.106Z,0.30
2019-04-30T10:33:28.579Z,0.45
2019-04-30T10:35:49.942Z,0.55
2019-04-30T10:38:10.546Z,0.50
2019-04-30T10:40:31.071Z,0.57
2019-04-30T10:42:51.682Z,1.30
2019-04-30T10:45:18.594Z,0.57
2019-04-30T10:47:39.434Z,0.62
2019-04-30T10:50:00.109Z,0.47
2019-04-30T10:52:20.735Z,0.62
2019-04-30T10:54:40.772Z,0.55
2019-04-30T10:57:01.317Z,0.42
2019-04-30T10:59:22.169Z,0.55
2019-04-30T11:01:42.139Z,0.40
2019-04-30T11:04:02.818Z,0.60
2019-04-30T11:06:23.416Z,0.80
2019-04-30T11:08:44.109Z,0.55
2019-04-30T11:11:05.082Z,0.60
2019-04-30T11:13:25.642Z,0.80
2019-04-30T11:15:45.748Z,0.95
2019-04-30T11:18:06.727Z,0.60
2019-04-30T11:20:29.680Z,0.70
2019-04-30T11:22:49.977Z,0.60
2019-04-30T11:25:11.001Z,0.57
2019-04-30T11:27:35.301Z,0.78
2019-04-30T11:30:03.162Z,0.55
2019-04-30T11:32:21.242Z,0.50
2019-04-30T11:34:41.297Z,0.53
2019-04-30T11:37:01.989Z,0.80
2019-04-30T11:39:43.433Z,0.70
2019-04-30T11:42:04.217Z,0.60
2019-04-30T11:44:31.065Z,0.90
2019-04-30T11:47:05.232Z,0.57
2019-04-30T11:49:25.788Z,0.80
2019-04-30T11:51:45.767Z,0.78
2019-04-30T11:54:05.704Z,0.70
2019-04-30T11:56:26.085Z,0.80
2019-04-30T11:58:48.793Z,0.72
2019-04-30T12:01:13.246Z,0.80
2019-04-30T12:03:35.391Z,1.00
2019-04-30T12:05:55.965Z,0.90
2019-04-30T12:08:19.435Z,1.30
2019-04-30T12:10:45.668Z,1.17
2019-04-30T12:13:09.533Z,0.90
2019-04-30T12:15:30.095Z,1.00
2019-04-30T12:17:50.627Z,1.10
2019-04-30T12:20:19.697Z,1.00
2019-04-30T12:22:41.515Z,1.40
2019-04-30T12:25:05.236Z,1.30
2019-04-30T12:27:25.238Z,1.40
2019-04-30T12:29:49.541Z,1.92
2019-04-30T12:32:11.337Z,2.15
2019-04-30T12:34:31.908Z,1.60
2019-04-30T12:36:59.589Z,1.85
2019-04-30T12:39:20.324Z,1.52
2019-04-30T12:41:40.927Z,1.92
2019-04-30T12:44:01.420Z,2.40
2019-04-30T12:46:21.921Z,1.65
2019-04-30T12:48:44.100Z,1.32
2019-04-30T12:51:10.453Z,1.40
2019-04-30T12:53:48.550Z,1.50
2019-04-30T12:56:16.745Z,1.67
2019-04-30T12:58:37.335Z,2.10
2019-04-30T13:00:59.109Z,1.57
2019-04-30T13:03:21.424Z,1.77
2019-04-30T13:05:42.164Z,1.55
2019-04-30T13:08:03.449Z,1.62
2019-04-30T13:10:25.287Z,1.67
2019-04-30T13:12:46.757Z,1.65
2019-04-30T13:15:09.729Z,2.30
2019-04-30T13:17:29.948Z,1.90
2019-04-30T13:19:50.645Z,3.20
2019-04-30T13:22:12.880Z,2.30
2019-04-30T13:24:33.215Z,1.53
2019-04-30T13:26:53.792Z,1.70
2019-04-30T13:29:22.090Z,1.77
2019-04-30T13:31:42.713Z,1.95
2019-04-30T13:34:05.046Z,1.70
2019-04-30T13:36:25.265Z,1.57
2019-04-30T13:39:03.500Z,2.00
2019-04-30T13:41:30.288Z,1.80
2019-04-30T13:43:55.231Z,2.20
2019-04-30T13:46:15.940Z,2.45
2019-04-30T13:48:36.474Z,2.15
2019-04-30T13:50:57.018Z,1.80
2019-04-30T13:53:18.633Z,1.87
2019-04-30T13:55:45.674Z,2.10
2019-04-30T13:58:02.933Z,1.70
2019-04-30T14:00:26.529Z,2.20
2019-04-30T14:02:48.686Z,2.20
2019-04-30T14:05:11.196Z,1.98
2019-04-30T14:07:45.416Z,2.60
2019-04-30T14:10:08.513Z,2.80
2019-04-30T14:12:30.140Z,2.00
2019-04-30T14:14:50.912Z,2.25
2019-04-30T14:17:11.592Z,1.95
2019-04-30T14:19:32.136Z,1.98
2019-04-30T14:21:52.765Z,2.62
2019-04-30T14:24:13.309Z,2.58
2019-04-30T14:26:33.755Z,2.50
2019-04-30T14:28:54.315Z,2.42
2019-04-30T14:31:14.763Z,2.60
2019-04-30T14:33:35.362Z,2.95
2019-04-30T14:35:55.989Z,2.70
2019-04-30T14:38:16.599Z,2.95
2019-04-30T14:40:40.511Z,2.47
2019-04-30T14:43:01.270Z,2.93
2019-04-30T14:45:24.067Z,3.08
2019-04-30T14:47:47.131Z,2.55
2019-04-30T14:50:15.302Z,2.52
2019-04-30T14:52:36.922Z,3.02
2019-04-30T14:55:05.525Z,2.98
2019-04-30T14:57:32.854Z,2.75
2019-04-30T15:00:11.078Z,2.80
2019-04-30T15:02:42.800Z,3.29
2019-04-30T15:05:05.566Z,3.12
2019-04-30T15:07:26.122Z,1.95
2019-04-30T15:09:46.950Z,3.15
2019-04-30T15:12:09.591Z,2.80
2019-04-30T15:14:33.162Z,3.15
2019-04-30T15:16:56.419Z,2.80
2019-04-30T15:19:17.024Z,3.05
2019-04-30T15:21:39.355Z,3.00
2019-04-30T15:24:04.313Z,2.23
2019-04-30T15:26:25.387Z,3.67
2019-04-30T15:28:46.094Z,2.70
2019-04-30T15:31:09.459Z,3.08
2019-04-30T15:33:34.464Z,3.17
2019-04-30T15:35:55.160Z,3.40
2019-04-30T15:38:15.897Z,3.62
2019-04-30T15:40:35.956Z,3.37
2019-04-30T15:42:57.810Z,3.03
2019-04-30T15:45:19.180Z,3.17
2019-04-30T15:47:39.181Z,3.05
2019-04-30T15:50:02.129Z,2.65
2019-04-30T15:52:21.508Z,2.87
2019-04-30T15:54:42.243Z,2.98
2019-04-30T15:57:02.914Z,3.30
2019-04-30T15:59:25.256Z,3.00
2019-04-30T16:01:50.112Z,3.15
2019-04-30T16:04:11.993Z,3.17
2019-04-30T16:06:32.510Z,3.33
2019-04-30T16:09:07.119Z,3.05
2019-04-30T16:11:30.874Z,3.27
2019-04-30T16:13:58.958Z,3.50
2019-04-30T16:16:19.557Z,3.50
2019-04-30T16:18:41.678Z,3.12
2019-04-30T16:21:02.151Z,3.12
2019-04-30T16:23:22.764Z,3.50
2019-04-30T16:25:42.810Z,3.80
2019-04-30T16:28:03.420Z,3.30
2019-04-30T16:30:24.257Z,3.40
2019-04-30T16:32:44.819Z,3.60
2019-04-30T16:35:09.619Z,3.40
2019-04-30T16:37:31.790Z,3.80
2019-04-30T16:39:54.068Z,3.65
2019-04-30T16:42:14.781Z,3.67
2019-04-30T16:44:35.368Z,4.25
2019-04-30T16:46:55.639Z,3.50
2019-04-30T16:49:16.092Z,3.40
2019-04-30T16:51:38.501Z,3.60
2019-04-30T16:53:58.866Z,3.60
2019-04-30T16:56:20.921Z,3.43
2019-04-30T16:59:00.170Z,3.27
2019-04-30T17:01:21.930Z,3.45
2019-04-30T17:03:44.841Z,3.90
2019-04-30T17:06:13.331Z,4.08
2019-04-30T17:08:35.459Z,3.77
2019-04-30T17:10:57.620Z,3.90
2019-04-30T17:13:28.470Z,3.70
2019-04-30T17:15:50.553Z,3.83
2019-04-30T17:18:12.155Z,3.67
2019-04-30T17:20:32.262Z,4.00
2019-04-30T17:22:52.733Z,3.70
2019-04-30T17:25:14.111Z,4.37
2019-04-30T17:27:36.579Z,4.05
2019-04-30T17:29:56.685Z,3.47
2019-04-30T17:32:18.644Z,4.40
2019-04-30T17:34:39.197Z,4.58
2019-04-30T17:36:59.887Z,4.47
2019-04-30T17:39:21.222Z,5.17
2019-04-30T17:41:41.979Z,5.70
2019-04-30T17:44:02.570Z,4.83
2019-04-30T17:46:23.418Z,5.45
2019-04-30T17:48:44.276Z,5.20
2019-04-30T17:51:05.184Z,4.87
2019-04-30T17:53:26.037Z,5.03
2019-04-30T17:55:46.472Z,4.87
2019-04-30T17:58:10.227Z,5.30
2019-04-30T18:00:32.456Z,4.40
2019-04-30T18:02:53.315Z,5.90
2019-04-30T18:05:14.003Z,7.28
2019-04-30T18:07:34.617Z,8.93
2019-04-30T18:09:55.284Z,7.62
2019-04-30T18:12:15.990Z,7.95
2019-04-30T18:14:39.555Z,9.13
2019-04-30T18:16:59.439Z,8.07
2019-04-30T18:19:29.418Z,5.80
2019-04-30T18:21:52.259Z,8.43
2019-04-30T18:24:14.309Z,8.75
2019-04-30T18:26:37.698Z,8.63
2019-04-30T18:31:18.605Z,7.30
2019-04-30T18:33:38.943Z,7.70
2019-04-30T18:35:59.747Z,9.23
2019-04-30T18:38:20.270Z,9.68
2019-04-30T18:40:42.600Z,9.55
2019-04-30T18:43:03.048Z,8.23
2019-04-30T18:45:23.750Z,8.33
2019-04-30T18:47:44.325Z,9.63
2019-04-30T18:50:06.201Z,9.28
2019-04-30T18:52:26.842Z,8.35
2019-04-30T18:54:49.401Z,8.38
2019-04-30T18:57:09.585Z,8.67
2019-04-30T18:59:32.691Z,8.90
2019-04-30T19:01:53.421Z,8.98
2019-04-30T19:04:14.205Z,9.48
2019-04-30T19:06:35.850Z,8.60
2019-04-30T19:09:14.362Z,9.95
2019-04-30T19:11:36.745Z,9.90
2019-04-30T19:14:14.138Z,7.03
2019-04-30T19:16:44.689Z,10.72
2019-04-30T19:19:20.232Z,10.32
2019-04-30T19:21:40.974Z,10.30
2019-04-30T19:24:01.014Z,10.43
2019-04-30T19:26:21.622Z,10.28
2019-04-30T19:28:42.146Z,9.48
2019-04-30T19:31:03.507Z,9.63
2019-04-30T19:33:26.155Z,9.18
2019-04-30T19:35:46.491Z,7.12
2019-04-30T19:38:09.099Z,9.35
2019-04-30T19:40:28.890Z,7.37
2019-04-30T19:42:50.933Z,10.03
2019-04-30T19:45:12.691Z,11.18
2019-04-30T19:47:34.279Z,10.32
2019-04-30T19:49:54.932Z,11.22
2019-04-30T19:52:15.697Z,11.15
2019-04-30T19:54:36.270Z,10.93
2019-04-30T19:56:58.521Z,10.32
2019-04-30T19:59:19.413Z,12.15
2019-04-30T20:01:39.962Z,11.75
2019-04-30T20:04:00.711Z,11.78
2019-04-30T20:06:21.446Z,11.90
2019-04-30T20:08:42.095Z,12.45
2019-04-30T20:11:04.752Z,13.32
2019-04-30T20:13:35.763Z,13.38
2019-04-30T20:15:49.391Z,13.35
2019-04-30T20:18:09.831Z,14.65
2019-04-30T20:20:30.590Z,13.72
2019-04-30T20:22:52.009Z,15.63
2019-04-30T20:25:12.811Z,13.62
2019-04-30T20:27:33.268Z,14.15
2019-04-30T20:29:53.921Z,15.30
2019-04-30T20:32:14.574Z,14.80
2019-04-30T20:34:35.141Z,14.10
2019-04-30T20:36:55.715Z,14.23
2019-04-30T20:39:18.074Z,14.15
2019-04-30T20:41:39.608Z,13.13
2019-04-30T20:44:00.628Z,12.63
2019-04-30T20:46:31.420Z,13.00
2019-04-30T20:48:44.010Z,11.53
2019-04-30T20:51:04.685Z,11.73
2019-04-30T20:53:25.409Z,11.15
2019-04-30T20:55:46.124Z,11.08
2019-04-30T20:58:06.830Z,11.40
2019-04-30T21:00:27.656Z,10.23
2019-04-30T21:02:48.565Z,9.13
2019-04-30T21:05:09.206Z,9.88
2019-04-30T21:07:30.693Z,8.53
2019-04-30T21:09:51.242Z,8.95
2019-04-30T21:12:11.681Z,9.00
2019-04-30T21:14:32.210Z,9.33
2019-04-30T21:16:52.461Z,8.70
2019-04-30T21:19:13.010Z,9.05
2019-04-30T21:21:33.598Z,8.80
2019-04-30T21:23:54.276Z,9.00
2019-04-30T21:26:14.956Z,8.63
2019-04-30T21:28:35.541Z,8.38
2019-04-30T21:30:56.688Z,7.95
2019-04-30T21:33:34.555Z,7.45
2019-04-30T21:36:02.415Z,7.40
2019-04-30T21:38:23.100Z,6.85
2019-04-30T21:40:43.909Z,6.62
2019-04-30T21:43:04.587Z,7.42
2019-04-30T21:45:25.176Z,7.28
2019-04-30T21:47:55.841Z,6.58
2019-04-30T21:50:10.204Z,7.08
2019-04-30T21:52:30.527Z,4.92
2019-04-30T21:54:51.436Z,6.20
2019-04-30T21:57:12.228Z,5.85
2019-04-30T21:59:33.193Z,5.75
2019-04-30T22:01:54.072Z,6.12
2019-04-30T22:04:15.140Z,5.40
2019-04-30T22:06:35.968Z,6.05
2019-04-30T22:08:58.452Z,4.90
2019-04-30T22:11:19.834Z,4.90
2019-04-30T22:13:43.097Z,4.58
2019-04-30T22:16:04.171Z,4.60
2019-04-30T22:18:24.771Z,4.75
2019-04-30T22:20:45.571Z,4.90
2019-04-30T22:23:07.111Z,5.03
2019-04-30T22:25:29.335Z,4.85
2019-04-30T22:27:50.186Z,5.20
2019-04-30T22:30:11.120Z,5.50
2019-04-30T22:32:31.686Z,5.35
2019-04-30T22:34:53.920Z,4.83
2019-04-30T22:37:15.867Z,5.50
2019-04-30T22:39:41.078Z,5.45
2019-04-30T22:42:08.891Z,5.25
2019-04-30T22:44:29.456Z,4.70
2019-04-30T22:46:50.139Z,5.08
2019-04-30T22:49:10.664Z,5.70
2019-04-30T22:51:31.258Z,5.20
2019-04-30T22:53:52.065Z,4.83
2019-04-30T22:56:12.612Z,4.72
2019-04-30T22:58:33.124Z,5.10
2019-04-30T23:00:55.396Z,4.95
2019-04-30T23:03:32.552Z,3.98
2019-04-30T23:05:53.455Z,4.85
2019-04-30T23:08:14.331Z,5.30
2019-04-30T23:10:35.028Z,5.37
2019-04-30T23:12:55.250Z,5.63
2019-04-30T23:15:16.938Z,5.25
2019-04-30T23:17:37.496Z,5.35
2019-04-30T23:19:58.186Z,5.65
2019-04-30T23:22:19.050Z,5.40
2019-04-30T23:24:39.567Z,5.62
2019-04-30T23:27:00.174Z,5.55
2019-04-30T23:29:20.748Z,5.87
2019-04-30T23:31:41.198Z,4.90
2019-04-30T23:34:01.712Z,5.72
2019-04-30T23:36:22.242Z,6.05
2019-04-30T23:38:42.689Z,5.70
2019-04-30T23:41:03.187Z,5.95
2019-04-30T23:43:23.708Z,6.60
2019-04-30T23:45:44.470Z,6.42
2019-04-30T23:48:05.014Z,7.08
2019-04-30T23:50:25.553Z,7.00
2019-04-30T23:52:46.151Z,7.70
2019-04-30T23:55:06.728Z,6.92
2019-04-30T23:57:27.271Z,7.28
2019-04-30T23:59:47.781Z,7.33
